Flight Track Log - Related Links

Times and Time Zones

All times are in EST time to prevent confusion due to time zone crossing. See the TAM3744 flight status page for this flight to view local times or setup timezone preferences in your user account.

Time Position Orientation Groundspeed Altitude Reporting Facility
EST Latitude Longitude Course Direction KTS MPH feet Rate Location/Type
Sun 12:48:23 PM -23.6420 -46.6460 180° South 164 189 3,500  Level FlightAware ADS-B
Sun 12:48:38 PM -23.6560 -46.6400 159° South 169 194 4,000 923 Climbing FlightAware ADS-B
Sun 12:49:28 PM -23.6750 -46.6810 243° Southwest 240 276 4,500 600 Climbing FlightAware ADS-B
Sun 12:49:58 PM -23.6770 -46.7210 267° West 274 315 4,800 686 Climbing FlightAware ADS-B
Sun 12:50:38 PM -23.6800 -46.7740 266° West 280 322 5,300 960 Climbing FlightAware ADS-B
Sun 12:51:13 PM -23.6840 -46.8240 265° West 281 323 6,000 2,100 Climbing FlightAware ADS-B
Sun 12:51:58 PM -23.7020 -46.8860 252° West 283 326 8,100 2,824 Climbing FlightAware ADS-B
Sun 12:52:38 PM -23.7190 -46.9390 251° West 282 325 10,000 2,593 Climbing FlightAware ADS-B
Sun 12:53:19 PM -23.7110 -46.9960 279° West 297 342 11,600 2,320 Climbing FlightAware ADS-B
Sun 12:53:53 PM -23.6860 -47.0410 301° West 304 350 12,900 1,899 Climbing FlightAware ADS-B
Sun 12:54:38 PM -23.6530 -47.1040 300° West 328 377 14,100 1,200 Climbing FlightAware ADS-B
Sun 12:55:08 PM -23.6290 -47.1490 300° West 355 409 14,400 1,029 Climbing FlightAware ADS-B
Sun 12:55:48 PM -23.5950 -47.2140 300° West 375 432 15,300 1,371 Climbing FlightAware ADS-B
Sun 12:56:18 PM -23.5700 -47.2600 301° West 387 445 16,000 1,477 Climbing FlightAware ADS-B
Sun 12:56:53 PM -23.5370 -47.3220 300° West 393 452 16,900 1,680 Climbing FlightAware ADS-B
Sun 12:57:58 PM -23.4700 -47.4320 304° West 401 461 18,800 1,740 Climbing FlightAware ADS-B
Sun 12:58:33 PM -23.4320 -47.4890 306° West 401 461 19,800 1,612 Climbing FlightAware ADS-B
Sun 12:59:05 PM -23.3960 -47.5410 307° West 406 467 20,600 1,457 Climbing FlightAware ADS-B
Sun 12:59:43 PM -23.3520 -47.6060 306° West 409 471 21,500 1,315 Climbing FlightAware ADS-B
Sun 01:00:18 PM -23.3140 -47.6620 306° West 416 479 22,200 1,364 Climbing FlightAware ADS-B
Sun 01:00:49 PM -23.2770 -47.7160 307° West 418 481 23,000 1,481 Climbing FlightAware ADS-B
Sun 01:01:39 PM -23.2190 -47.8010 307° West 421 484 24,200 1,468 Climbing FlightAware ADS-B
Sun 01:02:23 PM -23.1680 -47.8760 306° West 420 483 25,300 1,500 Climbing FlightAware ADS-B
Sun 01:03:35 PM -23.0850 -47.9950 307° West 416 479 27,100 1,218 Climbing FlightAware ADS-B
Sun 01:04:36 PM -23.0160 -48.0960 307° West 413 475 28,000 557 Climbing FlightAware ADS-B
Sun 01:05:12 PM -22.9730 -48.1590 307° West 415 478 28,000  Level FlightAware ADS-B
Sun 01:05:52 PM -22.9290 -48.2230 307° West 415 478 28,000  Level FlightAware ADS-B
Sun 01:06:51 PM -22.8600 -48.3230 307° West 414 476 28,000  Level FlightAware ADS-B
Sun 01:07:27 PM -22.8190 -48.3820 307° West 414 476 28,000  Level FlightAware ADS-B
Sun 01:08:09 PM -22.7700 -48.4530 307° West 414 476 28,000  Level FlightAware ADS-B
Sun 01:08:52 PM -22.7220 -48.5220 307° West 413 475 28,000  Level FlightAware ADS-B
Sun 01:09:24 PM -22.6850 -48.5750 307° West 412 474 28,000  Level FlightAware ADS-B
Sun 01:10:31 PM -22.6070 -48.6870 307° West 412 474 28,000  Level FlightAware ADS-B
Sun 01:11:03 PM -22.5720 -48.7380 307° West 412 474 28,000  Level FlightAware ADS-B
Sun 01:11:43 PM -22.5250 -48.8050 307° West 412 474 28,000  Level FlightAware ADS-B
Sun 01:12:15 PM -22.4890 -48.8570 307° West 413 475 28,000  Level FlightAware ADS-B
Sun 01:12:53 PM -22.4440 -48.9200 308° West 415 478 28,000  Level FlightAware ADS-B
Sun 01:13:27 PM -22.4040 -48.9780 307° West 415 478 28,000  Level FlightAware ADS-B
Sun 01:14:27 PM -22.3350 -49.0760 307° West 416 479 28,000  Level FlightAware ADS-B
Sun 01:14:59 PM -22.2930 -49.1240 313° West 419 482 28,000 -583 Level FlightAware ADS-B
Sun 01:15:39 PM -22.2320 -49.1790 320° Northwest 413 475 27,300 -1,560 Descending FlightAware ADS-B
Sun 01:16:39 PM -22.1460 -49.2540 321° Northwest 404 465 25,400 -1,980 Descending FlightAware ADS-B
Sun 01:17:19 PM -22.0850 -49.3040 323° Northwest 402 463 24,000 -1,929 Descending FlightAware ADS-B
Sun 01:18:03 PM -22.0090 -49.3240 346° North 393 452 22,700 -1,974 Descending FlightAware ADS-B
Sun 01:18:35 PM -21.9500 -49.3360 349° North 389 448 21,500 -1,875 Descending FlightAware ADS-B
Sun 01:19:39 PM -21.8390 -49.3580 350° North 370 426 19,700 -1,754 Descending FlightAware ADS-B
Sun 01:20:45 PM -21.7270 -49.3810 349° North 355 409 17,700 -1,814 Descending FlightAware ADS-B
Sun 01:21:05 PM -21.6950 -49.3870 350° North 350 403 17,100 -1,789 Descending FlightAware ADS-B
Sun 01:21:42 PM -21.6380 -49.3980 350° North 349 402 16,000 -1,739 Descending FlightAware ADS-B
Sun 01:22:14 PM -21.5910 -49.4080 349° North 346 398 15,100 -1,652 Descending FlightAware ADS-B
Sun 01:22:51 PM -21.5280 -49.4200 350° North 334 384 14,100 -1,595 Descending FlightAware ADS-B
Sun 01:23:33 PM -21.4660 -49.4330 349° North 324 373 13,000 -1,692 Descending FlightAware ADS-B
Sun 01:24:09 PM -21.4120 -49.4440 349° North 321 369 11,900 -1,929 Descending FlightAware ADS-B
Sun 01:24:57 PM -21.3420 -49.4580 349° North 316 364 10,300 -1,500 Descending FlightAware ADS-B
Sun 01:25:41 PM -21.2810 -49.4690 350° North 295 339 9,600 -1,235 Descending FlightAware ADS-B
Sun 01:26:39 PM -21.2040 -49.4850 349° North 287 330 8,200 -1,500 Descending FlightAware ADS-B
Sun 01:27:01 PM -21.1750 -49.4930 346° North 284 327 7,600 -735 Descending FlightAware ADS-B
Sun 01:27:28 PM -21.1460 -49.5000 347° North 284 327 7,600 -788 Level FlightAware ADS-B
Sun 01:30:00 PM -20.9528 -49.4451 15° North  Level Estimated
Sun 01:30:19 PM -20.9540 -49.5460 15° North 222 255 5,000  Level FlightAware ADS-B
Sun 01:30:50 PM -20.9200 -49.5450 North 217 250 4,900 -476 Descending FlightAware ADS-B
Sun 01:31:00 PM -20.8765 -49.4235 15° North  Level Estimated
Sun 01:31:22 PM -20.9060 -49.5270 50° Northeast 180 207 4,500  Level FlightAware ADS-B
Sun 01:32:24 PM -20.8740 -49.4830 52° Northeast 167 192 3,500 -907 Descending FlightAware ADS-B
Sun 01:32:48 PM -20.8650 -49.4720 49° Northeast 149 171 3,200 -844 Descending FlightAware ADS-B
Sun 01:33:28 PM -20.8470 -49.4470 52° Northeast 143 165 2,600 -833 Descending FlightAware ADS-B
Sun 01:34:00 PM -20.8340 -49.4290 52° Northeast 146 168 2,200 -656 Descending FlightAware ADS-B
Sun 01:34:32 PM -20.8200 -49.4110 50° Northeast 146 168 1,900 -563 Descending FlightAware ADS-B
Sun 01:35:04 PM -20.8130 -49.4020 50° Northeast 146 168 -3,563 Descending FlightAware ADS-B
Sun 01:35:46 PM -20.7980 -49.3990 11° North 146 168  Level FlightAware ADS-B
Sun 01:36:17 PM -20.8130 -49.4030 194° South 146 168  Level FlightAware ADS-B
Sun 01:37:05 PM -20.8190 -49.3880 113° Southeast 146 168  Level FlightAware ADS-B
Sun 01:37:17 PM -20.8120 -49.4040 295° West 146 168  Level FlightAware ADS-B
Sun 01:37:46 PM -20.8190 -49.3870 114° Southeast 146 168  Level FlightAware ADS-B
Sun 01:38:44 PM -20.8190 -49.3880 270° West 146 168  Level FlightAware ADS-B

Login

Don't have an account? Register now (free) for customized features, flight alerts, and more!